createdAt,value
2018-01-17T00:02:20.003Z,31.97
2018-01-17T00:04:48.083Z,30.10
2018-01-17T00:07:16.043Z,15.47
2018-01-17T00:09:43.902Z,17.03
2018-01-17T00:12:11.861Z,28.13
2018-01-17T00:14:39.822Z,32.43
2018-01-17T00:17:07.760Z,44.67
2018-01-17T00:19:35.839Z,29.17
2018-01-17T00:22:03.839Z,26.23
2018-01-17T00:24:32.099Z,39.67
2018-01-17T00:26:59.980Z,21.77
2018-01-17T00:29:27.843Z,28.87
2018-01-17T00:31:56.460Z,16.80
2018-01-17T00:34:24.687Z,25.23
2018-01-17T00:36:52.459Z,26.37
2018-01-17T00:39:20.400Z,23.47
2018-01-17T00:41:48.320Z,40.60
2018-01-17T00:44:16.160Z,16.60
2018-01-17T00:46:44.061Z,13.37
2018-01-17T00:49:12.299Z,16.67
2018-01-17T00:51:40.239Z,17.27
2018-01-17T00:54:08.380Z,18.10
2018-01-17T00:56:36.300Z,18.90
2018-01-17T00:59:04.242Z,17.73
2018-01-17T01:01:32.121Z,32.27
2018-01-17T01:04:00.701Z,29.50
2018-01-17T01:06:28.621Z,40.30
2018-01-17T01:08:57.802Z,19.37
2018-01-17T01:11:25.561Z,17.13
2018-01-17T01:13:53.741Z,18.20
2018-01-17T01:16:21.722Z,25.53
2018-01-17T01:18:50.024Z,17.80
2018-01-17T01:21:17.921Z,27.03
2018-01-17T01:23:46.621Z,45.83
2018-01-17T01:26:14.502Z,31.63
2018-01-17T01:28:42.641Z,22.40
2018-01-17T01:31:10.462Z,11.87
2018-01-17T01:33:39.625Z,8.07
2018-01-17T01:36:07.524Z,9.07
2018-01-17T01:38:35.901Z,9.73
2018-01-17T01:41:03.821Z,10.37
2018-01-17T01:43:31.860Z,13.10
2018-01-17T01:45:59.740Z,16.57
2018-01-17T01:48:28.221Z,16.03
2018-01-17T01:50:57.663Z,15.97
2018-01-17T01:53:26.142Z,15.27
2018-01-17T01:55:54.301Z,9.10
2018-01-17T01:58:22.181Z,12.60
2018-01-17T02:00:49.991Z,13.43
2018-01-17T02:03:17.864Z,13.77
2018-01-17T02:05:45.986Z,15.80
2018-01-17T02:08:13.804Z,17.00
2018-01-17T02:10:42.441Z,12.00
2018-01-17T02:13:10.343Z,17.80
2018-01-17T02:15:38.782Z,15.57
2018-01-17T02:18:08.743Z,15.27
2018-01-17T02:20:36.639Z,11.63
2018-01-17T02:23:04.958Z,11.60
2018-01-17T02:25:32.858Z,15.97
2018-01-17T02:28:00.898Z,12.27
2018-01-17T02:30:29.818Z,15.40
2018-01-17T02:32:57.938Z,16.33
2018-01-17T02:35:25.941Z,19.43
2018-01-17T02:37:53.659Z,16.20
2018-01-17T02:40:33.319Z,17.43
2018-01-17T02:43:01.599Z,18.30
2018-01-17T02:45:29.759Z,18.77
2018-01-17T02:47:58.402Z,18.07
2018-01-17T02:50:26.339Z,17.40
2018-01-17T02:52:55.219Z,19.27
2018-01-17T02:55:23.053Z,19.67
2018-01-17T02:57:52.058Z,18.37
2018-01-17T03:00:23.324Z,18.10
2018-01-17T03:02:51.188Z,19.07
2018-01-17T03:05:19.346Z,18.47
2018-01-17T03:07:47.267Z,19.23
2018-01-17T03:10:16.148Z,21.23
2018-01-17T03:12:44.028Z,20.13
2018-01-17T03:15:12.809Z,22.97
2018-01-17T03:17:40.646Z,18.83
2018-01-17T03:20:08.526Z,13.83
2018-01-17T03:22:36.406Z,15.43
2018-01-17T03:25:04.346Z,15.47
2018-01-17T03:27:32.267Z,15.67
2018-01-17T03:30:00.387Z,15.20
2018-01-17T03:32:28.227Z,14.80
2018-01-17T03:34:56.167Z,15.83
2018-01-17T03:37:24.007Z,15.30
2018-01-17T03:39:52.046Z,14.83
2018-01-17T03:42:20.746Z,16.63
2018-01-17T03:44:48.647Z,13.77
2018-01-17T03:47:16.646Z,13.37
2018-01-17T03:49:44.706Z,15.77
2018-01-17T03:52:12.486Z,14.07
2018-01-17T03:54:40.386Z,12.47
2018-01-17T03:57:10.383Z,13.13
2018-01-17T03:59:38.282Z,15.00
2018-01-17T04:02:06.486Z,13.43
2018-01-17T04:04:34.784Z,13.03
2018-01-17T04:07:02.525Z,13.47
2018-01-17T04:09:30.384Z,13.93
2018-01-17T04:11:58.444Z,16.70
2018-01-17T04:14:26.324Z,16.30
2018-01-17T04:16:54.205Z,17.97
2018-01-17T04:19:21.984Z,14.77
2018-01-17T04:21:49.867Z,11.87
2018-01-17T04:24:17.764Z,12.27
2018-01-17T04:26:46.025Z,11.50
2018-01-17T04:29:14.245Z,11.47
2018-01-17T04:31:42.504Z,8.67
2018-01-17T04:34:10.304Z,9.23
2018-01-17T04:36:38.210Z,10.43
2018-01-17T04:39:06.884Z,8.17
2018-01-17T04:41:34.805Z,8.70
2018-01-17T04:44:02.806Z,7.70
2018-01-17T04:46:30.544Z,8.37
2018-01-17T04:48:58.364Z,8.13
2018-01-17T04:51:26.326Z,7.97
2018-01-17T04:53:54.284Z,8.60
2018-01-17T04:56:22.144Z,8.87
2018-01-17T04:58:50.364Z,10.00
2018-01-17T05:01:18.268Z,8.83
2018-01-17T05:03:46.188Z,7.93
2018-01-17T05:06:14.028Z,9.20
2018-01-17T05:08:42.108Z,9.53
2018-01-17T05:11:09.990Z,8.60
2018-01-17T05:13:37.988Z,7.90
2018-01-17T05:16:05.968Z,13.10
2018-01-17T05:18:33.882Z,11.30
2018-01-17T05:21:01.703Z,14.03
2018-01-17T05:23:29.981Z,11.90
2018-01-17T05:25:57.761Z,12.10
2018-01-17T05:28:25.661Z,11.67
2018-01-17T05:30:53.761Z,13.67
2018-01-17T05:33:21.982Z,10.03
2018-01-17T05:35:49.921Z,11.37
2018-01-17T05:38:18.261Z,10.47
2018-01-17T05:40:46.161Z,9.33
2018-01-17T05:43:14.322Z,13.10
2018-01-17T05:45:42.221Z,10.40
2018-01-17T05:48:10.042Z,9.33
2018-01-17T05:50:37.921Z,9.07
2018-01-17T05:53:06.561Z,7.13
2018-01-17T05:55:34.502Z,8.90
2018-01-17T05:58:02.299Z,6.47
2018-01-17T06:00:30.065Z,4.87
2018-01-17T06:02:57.973Z,4.13
2018-01-17T06:05:25.744Z,5.47
2018-01-17T06:07:53.905Z,5.50
2018-01-17T06:10:22.185Z,3.90
2018-01-17T06:12:50.385Z,4.40
2018-01-17T06:15:18.445Z,5.20
2018-01-17T06:17:46.628Z,5.97
2018-01-17T06:20:14.684Z,4.40
2018-01-17T06:22:42.665Z,6.00
2018-01-17T06:25:10.481Z,5.00
2018-01-17T06:27:38.384Z,5.63
2018-01-17T06:30:06.264Z,4.20
2018-01-17T06:32:34.885Z,5.33
2018-01-17T06:35:02.825Z,6.87
2018-01-17T06:37:31.565Z,8.33
2018-01-17T06:39:59.365Z,5.83
2018-01-17T06:42:27.585Z,6.00
2018-01-17T06:44:56.364Z,6.43
2018-01-17T06:47:24.227Z,6.20
2018-01-17T06:49:52.163Z,7.47
2018-01-17T06:52:20.023Z,7.70
2018-01-17T06:54:48.161Z,7.07
2018-01-17T06:57:16.102Z,6.57
2018-01-17T06:59:44.004Z,7.17
2018-01-17T07:02:12.141Z,9.70
2018-01-17T07:04:40.001Z,8.67
2018-01-17T07:07:07.781Z,8.40
2018-01-17T07:09:35.823Z,7.60
2018-01-17T07:12:03.782Z,7.13
2018-01-17T07:14:32.061Z,7.80
2018-01-17T07:17:00.223Z,6.73
2018-01-17T07:19:29.050Z,7.50
2018-01-17T07:21:57.000Z,9.20
2018-01-17T07:24:26.622Z,9.70
2018-01-17T07:26:54.419Z,8.23
2018-01-17T07:29:23.162Z,7.33
2018-01-17T07:31:51.000Z,8.93
2018-01-17T07:34:19.701Z,9.00
2018-01-17T07:36:47.460Z,6.70
2018-01-17T07:39:15.322Z,8.13
2018-01-17T07:41:43.363Z,10.60
2018-01-17T07:44:11.940Z,7.40
2018-01-17T07:46:39.841Z,8.30
2018-01-17T07:49:07.981Z,9.33
2018-01-17T07:51:35.943Z,9.23
2018-01-17T07:54:03.921Z,8.80
2018-01-17T07:56:31.808Z,9.27
2018-01-17T07:58:59.561Z,7.13
2018-01-17T08:01:27.324Z,8.83
2018-01-17T08:03:55.101Z,9.10
2018-01-17T08:06:22.883Z,10.07
2018-01-17T08:08:50.711Z,7.30
2018-01-17T08:11:18.463Z,10.33
2018-01-17T08:13:46.405Z,8.53
2018-01-17T08:16:14.323Z,8.90
2018-01-17T08:18:42.284Z,12.53
2018-01-17T08:21:10.343Z,11.97
2018-01-17T08:23:38.245Z,11.70
2018-01-17T08:26:06.379Z,18.83
2018-01-17T08:28:34.802Z,22.63
2018-01-17T08:31:03.085Z,18.10
2018-01-17T08:33:31.383Z,19.17
2018-01-17T08:35:59.190Z,16.37
2018-01-17T08:38:27.164Z,21.60
2018-01-17T08:40:55.023Z,11.83
2018-01-17T08:43:22.941Z,14.80
2018-01-17T08:45:51.099Z,11.30
2018-01-17T08:48:19.860Z,12.33
2018-01-17T08:50:47.739Z,12.70
2018-01-17T08:53:15.599Z,9.43
2018-01-17T08:55:43.479Z,13.67
2018-01-17T08:58:11.342Z,12.40
2018-01-17T09:00:39.339Z,14.73
2018-01-17T09:03:07.259Z,12.83
2018-01-17T09:05:35.099Z,11.80
2018-01-17T09:08:03.048Z,12.40
2018-01-17T09:10:30.902Z,14.37
2018-01-17T09:12:59.672Z,12.50
2018-01-17T09:15:27.742Z,12.10
2018-01-17T09:17:55.638Z,11.07
2018-01-17T09:20:23.443Z,9.73
2018-01-17T09:22:51.365Z,11.37
2018-01-17T09:25:20.000Z,10.93
2018-01-17T09:27:47.959Z,11.53
2018-01-17T09:30:15.839Z,11.93
2018-01-17T09:32:43.779Z,13.40
2018-01-17T09:35:12.181Z,15.47
2018-01-17T09:37:40.799Z,11.43
2018-01-17T09:40:09.055Z,11.17
2018-01-17T09:42:36.859Z,12.27
2018-01-17T09:45:04.606Z,10.80
2018-01-17T09:47:32.441Z,10.67
2018-01-17T09:50:00.379Z,11.87
2018-01-17T09:52:28.280Z,11.93
2018-01-17T09:54:56.147Z,10.37
2018-01-17T09:57:23.962Z,11.03
2018-01-17T09:59:52.504Z,12.63
2018-01-17T10:02:20.422Z,10.60
2018-01-17T10:04:48.360Z,11.33
2018-01-17T10:07:16.141Z,10.70
2018-01-17T10:09:44.962Z,10.97
2018-01-17T10:12:12.861Z,9.47
2018-01-17T10:14:40.707Z,8.40
2018-01-17T10:17:08.559Z,7.53
2018-01-17T10:19:36.578Z,8.73
2018-01-17T10:22:04.479Z,7.80
2018-01-17T10:24:32.298Z,10.90
2018-01-17T10:29:33.878Z,12.20
2018-01-17T10:32:01.902Z,11.73
2018-01-17T10:34:29.768Z,11.07
2018-01-17T10:36:57.527Z,9.67
2018-01-17T10:39:25.388Z,17.17
2018-01-17T10:41:53.223Z,17.97
2018-01-17T10:44:21.848Z,19.63
2018-01-17T10:46:50.009Z,16.90
2018-01-17T10:49:17.828Z,16.93
2018-01-17T10:51:45.707Z,19.87
2018-01-17T10:54:13.368Z,18.67
2018-01-17T10:56:48.141Z,17.40
2018-01-17T10:59:15.792Z,17.47
2018-01-17T11:01:43.499Z,16.57
2018-01-17T11:04:11.242Z,19.43
2018-01-17T11:06:39.059Z,18.17
2018-01-17T11:09:07.178Z,17.77
2018-01-17T11:11:35.179Z,16.37
2018-01-17T11:14:05.033Z,20.47
2018-01-17T11:16:32.822Z,16.23
2018-01-17T11:19:00.661Z,17.97
2018-01-17T11:21:28.480Z,10.97
2018-01-17T11:26:28.579Z,1.70
2018-01-17T11:28:56.387Z,1.97
2018-01-17T11:31:24.315Z,1.20
2018-01-17T11:33:52.223Z,1.30
2018-01-17T11:36:19.961Z,1.10
2018-01-17T11:38:47.822Z,1.17
2018-01-17T11:41:15.899Z,0.90
2018-01-17T11:43:43.947Z,0.97
2018-01-17T11:46:12.304Z,1.10
2018-01-17T11:48:40.261Z,1.20
2018-01-17T11:51:08.141Z,1.10
2018-01-17T11:53:36.102Z,1.03
2018-01-17T11:56:03.941Z,1.20
2018-01-17T11:58:31.786Z,1.20
2018-01-17T12:00:59.591Z,0.80
2018-01-17T12:03:27.907Z,0.90
2018-01-17T12:05:55.888Z,1.07
2018-01-17T12:08:24.308Z,1.73
2018-01-17T12:10:52.887Z,1.23
2018-01-17T12:13:20.668Z,1.00
2018-01-17T12:15:48.568Z,1.20
2018-01-17T12:18:16.528Z,1.47
2018-01-17T12:20:45.643Z,1.13
2018-01-17T12:23:13.982Z,0.90
2018-01-17T12:25:41.902Z,1.00
2018-01-17T12:28:09.883Z,1.20
2018-01-17T12:30:38.507Z,1.10
2018-01-17T12:33:06.885Z,1.10
2018-01-17T12:35:34.801Z,2.00
2018-01-17T12:38:02.821Z,1.00
2018-01-17T12:40:30.701Z,2.40
2018-01-17T12:42:58.663Z,1.10
2018-01-17T12:45:26.601Z,1.20
2018-01-17T12:47:54.642Z,0.70
2018-01-17T12:50:22.482Z,0.90
2018-01-17T12:52:50.441Z,0.80
2018-01-17T12:55:18.252Z,1.03
2018-01-17T12:57:46.052Z,0.80
2018-01-17T13:00:13.924Z,1.17
2018-01-17T13:02:41.802Z,0.80
2018-01-17T13:05:09.849Z,0.90
2018-01-17T13:07:37.725Z,0.90
2018-01-17T13:10:05.642Z,0.90
2018-01-17T13:12:33.642Z,0.80
2018-01-17T13:15:01.669Z,0.90
2018-01-17T13:17:31.066Z,1.17
2018-01-17T13:19:58.924Z,1.20
2018-01-17T13:22:26.781Z,5.60
2018-01-17T13:24:54.719Z,1.73
2018-01-17T13:27:22.988Z,1.40
2018-01-17T13:29:50.940Z,0.90
2018-01-17T13:32:18.720Z,3.70
2018-01-17T13:34:46.881Z,0.90
2018-01-17T13:37:14.764Z,0.90
2018-01-17T13:39:42.640Z,0.90
2018-01-17T13:42:10.643Z,2.87
2018-01-17T13:44:38.585Z,2.33
2018-01-17T13:47:06.424Z,1.73
2018-01-17T13:49:34.281Z,0.80
2018-01-17T13:52:02.040Z,1.20
2018-01-17T13:54:29.865Z,3.80
2018-01-17T13:56:58.482Z,1.13
2018-01-17T13:59:26.445Z,2.13
2018-01-17T14:01:54.178Z,1.20
2018-01-17T14:04:22.082Z,4.27
2018-01-17T14:06:50.467Z,1.80
2018-01-17T14:09:18.424Z,3.87
2018-01-17T14:11:46.779Z,1.63
2018-01-17T14:14:14.747Z,3.73
2018-01-17T14:16:42.622Z,1.43
2018-01-17T14:19:10.583Z,1.20
2018-01-17T14:21:38.524Z,1.20
2018-01-17T14:24:07.100Z,1.00
2018-01-17T14:26:35.778Z,1.00
2018-01-17T14:29:03.721Z,1.20
2018-01-17T14:31:31.638Z,3.00
2018-01-17T14:33:59.566Z,2.63
2018-01-17T14:36:27.581Z,1.40
2018-01-17T14:38:55.519Z,1.10
2018-01-17T14:41:23.390Z,1.07
2018-01-17T14:43:51.300Z,1.10
2018-01-17T14:46:19.198Z,1.40
2018-01-17T14:48:47.143Z,5.53
2018-01-17T14:51:15.048Z,2.73
2018-01-17T14:53:43.048Z,1.30
2018-01-17T14:56:10.944Z,2.20
2018-01-17T14:58:39.142Z,4.93
2018-01-17T15:01:07.002Z,3.27
2018-01-17T15:03:34.742Z,3.23
2018-01-17T15:06:02.737Z,1.33
2018-01-17T15:08:30.662Z,5.90
2018-01-17T15:10:58.483Z,6.17
2018-01-17T15:13:26.462Z,2.97
2018-01-17T15:15:54.321Z,3.97
2018-01-17T15:18:22.208Z,4.33
2018-01-17T15:20:50.159Z,4.10
2018-01-17T15:23:18.159Z,1.20
2018-01-17T15:25:47.606Z,3.73
2018-01-17T15:28:15.724Z,3.43
2018-01-17T15:30:43.702Z,5.00
2018-01-17T15:33:11.982Z,3.87
2018-01-17T15:35:40.022Z,2.30
2018-01-17T15:38:07.987Z,2.47
2018-01-17T15:40:35.938Z,1.70
2018-01-17T15:43:03.981Z,2.87
2018-01-17T15:45:31.908Z,1.20
2018-01-17T15:47:59.779Z,1.73
2018-01-17T15:50:27.561Z,4.13
2018-01-17T15:52:55.402Z,1.47
2018-01-17T15:55:23.261Z,1.80
2018-01-17T15:57:51.121Z,1.53
2018-01-17T16:00:19.133Z,2.93
2018-01-17T16:02:46.982Z,2.03
2018-01-17T16:05:14.883Z,2.07
2018-01-17T16:07:42.742Z,2.00
2018-01-17T16:10:10.990Z,2.57
2018-01-17T16:12:38.798Z,1.67
2018-01-17T16:15:06.629Z,2.23
2018-01-17T16:17:34.563Z,2.90
2018-01-17T16:20:02.368Z,2.20
2018-01-17T16:22:30.242Z,1.83
2018-01-17T16:24:58.122Z,3.03
2018-01-17T16:27:25.920Z,2.80
2018-01-17T16:29:53.765Z,3.63
2018-01-17T16:32:21.623Z,1.97
2018-01-17T16:34:49.543Z,2.43
2018-01-17T16:37:17.363Z,3.93
2018-01-17T16:39:45.224Z,4.07
2018-01-17T16:42:13.046Z,2.83
2018-01-17T16:44:40.983Z,3.33
2018-01-17T16:47:08.823Z,1.60
2018-01-17T16:49:36.663Z,1.50
2018-01-17T16:52:04.943Z,2.43
2018-01-17T16:54:32.803Z,2.93
2018-01-17T16:57:00.784Z,3.63
2018-01-17T17:02:01.702Z,2.67
2018-01-17T17:04:29.476Z,2.23
2018-01-17T17:06:57.205Z,4.17
2018-01-17T17:09:24.990Z,2.07
2018-01-17T17:11:52.803Z,2.10
2018-01-17T17:14:20.672Z,3.70
2018-01-17T17:16:48.463Z,3.97
2018-01-17T17:19:16.582Z,1.93
2018-01-17T17:21:44.343Z,4.13
2018-01-17T17:24:12.129Z,2.30
2018-01-17T17:26:39.862Z,1.73
2018-01-17T17:29:07.625Z,1.90
2018-01-17T17:31:35.544Z,2.97
2018-01-17T17:34:03.324Z,3.27
2018-01-17T17:36:31.123Z,1.60
2018-01-17T17:38:58.891Z,2.77
2018-01-17T17:41:26.662Z,2.50
2018-01-17T17:43:54.480Z,2.17
2018-01-17T17:46:22.220Z,2.70
2018-01-17T17:48:50.121Z,3.23
2018-01-17T17:51:17.901Z,3.33
2018-01-17T17:53:45.740Z,2.67
2018-01-17T17:56:13.501Z,7.20
2018-01-17T17:58:41.561Z,25.67
2018-01-17T18:01:09.601Z,17.53
2018-01-17T18:03:37.327Z,16.17
2018-01-17T18:06:05.098Z,5.80
2018-01-17T18:08:33.061Z,3.80
2018-01-17T18:11:00.880Z,4.17
2018-01-17T18:13:28.800Z,3.40
2018-01-17T18:15:56.899Z,4.77
2018-01-17T18:18:25.987Z,2.87
2018-01-17T18:20:53.842Z,2.50
2018-01-17T18:23:21.703Z,3.73
2018-01-17T18:25:49.581Z,1.70
2018-01-17T18:28:17.480Z,2.37
2018-01-17T18:30:45.300Z,1.47
2018-01-17T18:33:13.140Z,1.47
2018-01-17T18:35:41.379Z,3.77
2018-01-17T18:38:09.341Z,1.57
2018-01-17T18:40:37.322Z,2.07
2018-01-17T18:43:05.125Z,3.30
2018-01-17T18:45:33.504Z,4.27
2018-01-17T18:48:01.558Z,4.33
2018-01-17T18:50:29.465Z,1.83
2018-01-17T18:52:57.340Z,1.83
2018-01-17T18:55:25.299Z,1.80
2018-01-17T18:57:53.203Z,7.23
2018-01-17T19:00:22.388Z,4.37
2018-01-17T19:02:50.623Z,2.83
2018-01-17T19:05:18.784Z,2.37
2018-01-17T19:07:47.461Z,3.33
2018-01-17T19:10:15.721Z,5.17
2018-01-17T19:12:44.082Z,3.07
2018-01-17T19:15:12.761Z,2.83
2018-01-17T19:17:40.723Z,4.23
2018-01-17T19:20:09.021Z,1.87
2018-01-17T19:22:36.861Z,1.87
2018-01-17T19:25:04.562Z,4.20
2018-01-17T19:27:32.502Z,2.93
2018-01-17T19:30:00.404Z,3.37
2018-01-17T19:32:28.642Z,1.60
2018-01-17T19:34:56.501Z,1.43
2018-01-17T19:37:25.202Z,1.60
2018-01-17T19:39:53.982Z,2.53
2018-01-17T19:42:22.113Z,2.93
2018-01-17T19:44:50.827Z,2.27
2018-01-17T19:47:18.991Z,1.80
2018-01-17T19:49:46.970Z,2.70
2018-01-17T19:52:14.961Z,3.67
2018-01-17T19:54:42.839Z,4.43
2018-01-17T19:57:11.488Z,3.50
2018-01-17T19:59:40.131Z,3.50
2018-01-17T20:02:07.963Z,2.73
2018-01-17T20:04:35.701Z,3.87
2018-01-17T20:07:03.456Z,2.47
2018-01-17T20:09:31.249Z,3.93
2018-01-17T20:11:59.006Z,2.23
2018-01-17T20:14:26.912Z,2.47
2018-01-17T20:16:55.485Z,2.83
2018-01-17T20:19:23.240Z,4.63
2018-01-17T20:21:51.042Z,5.33
2018-01-17T20:24:18.842Z,4.37
2018-01-17T20:26:46.631Z,4.17
2018-01-17T20:29:15.131Z,4.27
2018-01-17T20:31:42.960Z,4.53
2018-01-17T20:34:10.780Z,4.07
2018-01-17T20:36:38.480Z,3.93
2018-01-17T20:39:06.382Z,3.83
2018-01-17T20:41:34.880Z,3.93
2018-01-17T20:44:02.661Z,2.90
2018-01-17T20:46:30.406Z,3.93
2018-01-17T20:48:58.122Z,4.60
2018-01-17T20:51:25.832Z,3.00
2018-01-17T20:53:53.662Z,3.70
2018-01-17T20:56:22.262Z,3.03
2018-01-17T20:58:50.063Z,2.87
2018-01-17T21:01:17.808Z,3.37
2018-01-17T21:03:46.409Z,2.77
2018-01-17T21:06:14.290Z,2.20
2018-01-17T21:08:42.090Z,3.33
2018-01-17T21:11:10.614Z,1.70
2018-01-17T21:13:38.401Z,2.00
2018-01-17T21:16:06.140Z,1.97
2018-01-17T21:18:33.921Z,1.90
2018-01-17T21:21:01.739Z,1.90
2018-01-17T21:23:30.144Z,2.00
2018-01-17T21:25:57.944Z,1.80
2018-01-17T21:28:26.433Z,2.90
2018-01-17T21:30:54.190Z,2.00
2018-01-17T21:33:21.944Z,1.70
2018-01-17T21:35:49.726Z,2.00
2018-01-17T21:38:17.502Z,1.63
2018-01-17T21:40:45.303Z,2.83
2018-01-17T21:43:18.643Z,1.90
2018-01-17T21:45:50.387Z,2.50
2018-01-17T21:48:18.100Z,2.50
2018-01-17T21:50:45.847Z,2.33
2018-01-17T21:53:13.628Z,2.73
2018-01-17T21:55:41.356Z,3.80
2018-01-17T21:58:09.108Z,2.20
2018-01-17T22:00:37.654Z,2.10
2018-01-17T22:03:06.303Z,3.10
2018-01-17T22:05:34.160Z,3.00
2018-01-17T22:08:01.922Z,5.87
2018-01-17T22:10:29.822Z,6.30
2018-01-17T22:12:58.108Z,2.57
2018-01-17T22:15:25.982Z,2.60
2018-01-17T22:17:53.945Z,3.37
2018-01-17T22:20:21.802Z,2.83
2018-01-17T22:22:49.763Z,4.33
2018-01-17T22:25:17.761Z,2.40
2018-01-17T22:27:46.102Z,3.20
2018-01-17T22:30:14.041Z,1.83
2018-01-17T22:32:41.941Z,2.87
2018-01-17T22:35:10.087Z,3.37
2018-01-17T22:37:38.182Z,2.73
2018-01-17T22:40:06.020Z,2.23
2018-01-17T22:42:34.301Z,2.30
2018-01-17T22:45:02.207Z,1.77
2018-01-17T22:47:30.121Z,1.73
2018-01-17T22:49:58.002Z,3.73
2018-01-17T22:52:25.922Z,1.50
2018-01-17T22:54:55.302Z,1.40
2018-01-17T22:57:23.103Z,2.13
2018-01-17T22:59:51.220Z,1.53
2018-01-17T23:02:19.947Z,1.87
2018-01-17T23:04:47.808Z,1.47
2018-01-17T23:07:15.868Z,2.60
2018-01-17T23:09:44.468Z,2.40
2018-01-17T23:12:12.487Z,2.70
2018-01-17T23:14:40.427Z,3.87
2018-01-17T23:17:08.268Z,1.70
2018-01-17T23:19:36.447Z,2.23
2018-01-17T23:22:04.351Z,1.93
2018-01-17T23:24:32.289Z,2.63
2018-01-17T23:27:00.127Z,2.87
2018-01-17T23:29:28.009Z,3.77
2018-01-17T23:31:56.367Z,2.93
2018-01-17T23:34:24.488Z,3.47
2018-01-17T23:36:52.455Z,1.93
2018-01-17T23:39:20.589Z,2.60
2018-01-17T23:41:48.407Z,3.07
2018-01-17T23:44:16.307Z,1.80
2018-01-17T23:46:44.187Z,1.70
2018-01-17T23:49:12.028Z,1.50
2018-01-17T23:51:40.228Z,2.10
2018-01-17T23:54:08.121Z,1.63
2018-01-17T23:56:35.902Z,1.60
2018-01-17T23:59:03.840Z,2.13
